createdAt,value
2023-02-08T00:00:02.139Z,-10.63
2023-02-08T00:01:01.660Z,-10.61
2023-02-08T00:02:02.136Z,-10.62
2023-02-08T00:03:01.689Z,-10.63
2023-02-08T00:04:03.976Z,-10.63
2023-02-08T00:05:01.719Z,-10.65
2023-02-08T00:06:02.823Z,-10.68
2023-02-08T00:07:01.737Z,-10.74
2023-02-08T00:08:02.291Z,-10.78
2023-02-08T00:09:01.803Z,-10.8
2023-02-08T00:10:02.295Z,-10.79
2023-02-08T00:11:03.475Z,-10.82
2023-02-08T00:12:02.367Z,-10.86
2023-02-08T00:13:01.882Z,-10.85
2023-02-08T00:14:01.408Z,-10.84
2023-02-08T00:15:01.880Z,-10.85
2023-02-08T00:16:01.457Z,-10.85
2023-02-08T00:17:01.894Z,-10.87
2023-02-08T00:18:01.401Z,-10.89
2023-02-08T00:19:01.898Z,-10.89
2023-02-08T00:20:01.398Z,-10.88
2023-02-08T00:21:01.964Z,-10.87
2023-02-08T00:22:01.428Z,-10.87
2023-02-08T00:23:03.639Z,-10.88
2023-02-08T00:24:01.506Z,-10.88
2023-02-08T00:25:01.964Z,-10.9
2023-02-08T00:26:03.204Z,-10.94
2023-02-08T00:27:02.045Z,-10.95
2023-02-08T00:28:03.926Z,-10.96
2023-02-08T00:29:02.077Z,-10.96
2023-02-08T00:30:01.593Z,-11
2023-02-08T00:31:02.140Z,-11.02
2023-02-08T00:32:01.627Z,-11.01
2023-02-08T00:33:02.144Z,-10.94
2023-02-08T00:34:01.562Z,-10.89
2023-02-08T00:35:02.134Z,-10.87
2023-02-08T00:36:01.627Z,-10.86
2023-02-08T00:37:02.121Z,-10.85
2023-02-08T00:38:01.675Z,-10.88
2023-02-08T00:39:02.207Z,-10.93
2023-02-08T00:40:01.753Z,-10.95
2023-02-08T00:41:03.886Z,-10.96
2023-02-08T00:42:01.713Z,-10.97
2023-02-08T00:43:03.958Z,-10.99
2023-02-08T00:44:01.813Z,-10.99
2023-02-08T00:45:04.596Z,-11
2023-02-08T00:46:01.796Z,-11.01
2023-02-08T00:47:02.358Z,-11.02
2023-02-08T00:48:03.573Z,-11.06
2023-02-08T00:49:04.024Z,-11.08
2023-02-08T00:50:01.867Z,-11.1
2023-02-08T00:51:01.392Z,-11.12
2023-02-08T00:52:03.578Z,-11.12
2023-02-08T00:53:01.393Z,-11.16
2023-02-08T00:54:01.879Z,-11.15
2023-02-08T00:55:01.427Z,-11.14
2023-02-08T00:56:01.875Z,-11.15
2023-02-08T00:57:01.508Z,-11.16
2023-02-08T00:58:03.545Z,-11.19
2023-02-08T00:59:01.490Z,-11.19
2023-02-08T01:00:02.049Z,-11.19
2023-02-08T01:01:01.663Z,-11.12
2023-02-08T01:02:02.076Z,-11.09
2023-02-08T01:03:01.582Z,-11.08
2023-02-08T01:04:02.130Z,-11.09
2023-02-08T01:05:01.630Z,-11.11
2023-02-08T01:06:02.145Z,-11.09
2023-02-08T01:07:01.627Z,-11.07
2023-02-08T01:08:02.196Z,-11.07
2023-02-08T01:09:01.716Z,-11.07
2023-02-08T01:10:02.211Z,-11.05
2023-02-08T01:11:01.735Z,-11.09
2023-02-08T01:12:02.267Z,-11.15
2023-02-08T01:13:01.799Z,-11.12
2023-02-08T01:14:02.284Z,-11.09
2023-02-08T01:15:01.805Z,-11.09
2023-02-08T01:16:02.295Z,-11.11
2023-02-08T01:17:03.472Z,-11.12
2023-02-08T01:18:02.350Z,-11.16
2023-02-08T01:19:01.887Z,-11.15
2023-02-08T01:20:01.329Z,-11.14
2023-02-08T01:21:01.870Z,-11.14
2023-02-08T01:22:03.069Z,-11.1
2023-02-08T01:23:01.950Z,-11.1
2023-02-08T01:24:02.076Z,-11.11
2023-02-08T01:25:01.959Z,-11.15
2023-02-08T01:26:01.492Z,-11.19
2023-02-08T01:27:02.044Z,-11.2
2023-02-08T01:28:01.587Z,-11.19
2023-02-08T01:29:02.049Z,-11.19
2023-02-08T01:30:03.233Z,-11.2
2023-02-08T01:31:02.047Z,-11.22
2023-02-08T01:32:01.571Z,-11.25
2023-02-08T01:33:02.123Z,-11.26
2023-02-08T01:34:01.642Z,-11.27
2023-02-08T01:35:02.143Z,-11.3
2023-02-08T01:36:01.660Z,-11.31
2023-02-08T01:37:02.119Z,-11.29
2023-02-08T01:38:01.636Z,-11.22
2023-02-08T01:39:02.227Z,-11.18
2023-02-08T01:40:01.714Z,-11.15
2023-02-08T01:41:02.201Z,-11.14
2023-02-08T01:42:01.716Z,-11.2
2023-02-08T01:43:02.277Z,-11.24
2023-02-08T01:44:01.789Z,-11.26
2023-02-08T01:45:02.275Z,-11.3
2023-02-08T01:46:01.897Z,-11.32
2023-02-08T01:47:02.346Z,-11.35
2023-02-08T01:48:01.869Z,-11.35
2023-02-08T01:49:01.404Z,-11.35
2023-02-08T01:50:01.877Z,-11.35
2023-02-08T01:51:01.386Z,-11.35
2023-02-08T01:52:01.971Z,-11.35
2023-02-08T01:53:01.394Z,-11.33
2023-02-08T01:54:03.659Z,-11.33
2023-02-08T01:55:01.487Z,-11.29
2023-02-08T01:56:01.965Z,-11.27
2023-02-08T01:57:01.490Z,-11.27
2023-02-08T01:58:02.043Z,-11.25
2023-02-08T01:59:01.562Z,-11.23
2023-02-08T02:00:03.720Z,-11.25
2023-02-08T02:01:01.619Z,-11.3
2023-02-08T02:02:03.725Z,-11.32
2023-02-08T02:03:02.198Z,-11.34
2023-02-08T02:04:02.190Z,-11.35
2023-02-08T02:05:01.654Z,-11.38
2023-02-08T02:06:02.116Z,-11.39
2023-02-08T02:07:01.626Z,-11.39
2023-02-08T02:08:02.215Z,-11.39
2023-02-08T02:09:01.716Z,-11.4
2023-02-08T02:10:02.194Z,-11.4
2023-02-08T02:11:01.715Z,-11.41
2023-02-08T02:12:02.288Z,-11.43
2023-02-08T02:13:01.816Z,-11.43
2023-02-08T02:14:03.941Z,-11.44
2023-02-08T02:15:01.798Z,-11.45
2023-02-08T02:16:04.208Z,-11.45
2023-02-08T02:17:01.883Z,-11.41
2023-02-08T02:19:03.496Z,-11.35
2023-02-08T02:20:02.353Z,-11.31
2023-02-08T02:21:03.545Z,-11.31
2023-02-08T02:22:03.079Z,-11.35
2023-02-08T02:23:01.890Z,-11.41
2023-02-08T02:24:03.136Z,-11.48
2023-02-08T02:25:01.912Z,-11.5
2023-02-08T02:26:01.416Z,-11.5
2023-02-08T02:27:01.950Z,-11.5
2023-02-08T02:28:01.500Z,-11.49
2023-02-08T02:29:03.636Z,-11.5
2023-02-08T02:30:03.152Z,-11.52
2023-02-08T02:31:02.072Z,-11.53
2023-02-08T02:32:01.546Z,-11.54
2023-02-08T02:33:02.029Z,-11.55
2023-02-08T02:34:01.558Z,-11.55
2023-02-08T02:35:02.040Z,-11.54
2023-02-08T02:36:03.271Z,-11.53
2023-02-08T02:37:02.107Z,-11.52
2023-02-08T02:38:03.310Z,-11.51
2023-02-08T02:39:03.794Z,-11.5
2023-02-08T02:40:01.630Z,-11.49
2023-02-08T02:41:02.110Z,-11.47
2023-02-08T02:42:02.295Z,-11.47
2023-02-08T02:43:02.189Z,-11.48
2023-02-08T02:44:01.717Z,-11.5
2023-02-08T02:45:02.192Z,-11.5
2023-02-08T02:46:01.728Z,-11.5
2023-02-08T02:47:02.200Z,-11.47
2023-02-08T02:48:01.716Z,-11.47
2023-02-08T02:49:03.952Z,-11.46
2023-02-08T02:50:01.803Z,-11.47
2023-02-08T02:51:02.281Z,-11.49
2023-02-08T02:52:01.840Z,-11.51
2023-02-08T02:53:03.957Z,-11.5
2023-02-08T02:54:01.886Z,-11.51
2023-02-08T02:55:01.409Z,-11.51
2023-02-08T02:56:01.874Z,-11.51
2023-02-08T02:57:01.409Z,-11.48
2023-02-08T02:58:01.894Z,-11.5
2023-02-08T02:59:01.422Z,-11.5
2023-02-08T03:00:03.680Z,-11.47
2023-02-08T03:01:03.104Z,-11.49
2023-02-08T03:02:03.640Z,-11.5
2023-02-08T03:03:01.473Z,-11.5
2023-02-08T03:04:02.110Z,-11.5
2023-02-08T03:05:01.588Z,-11.51
2023-02-08T03:06:02.080Z,-11.51
2023-02-08T03:07:03.243Z,-11.54
2023-02-08T03:08:02.115Z,-11.55
2023-02-08T03:09:01.647Z,-11.54
2023-02-08T03:10:02.145Z,-11.53
2023-02-08T03:11:01.651Z,-11.53
2023-02-08T03:12:02.198Z,-11.52
2023-02-08T03:13:01.709Z,-11.51
2023-02-08T03:14:03.883Z,-11.5
2023-02-08T03:15:01.853Z,-11.54
2023-02-08T03:16:02.282Z,-11.59
2023-02-08T03:17:01.911Z,-11.61
2023-02-08T03:18:02.285Z,-11.58
2023-02-08T03:19:01.949Z,-11.53
2023-02-08T03:20:04.072Z,-11.51
2023-02-08T03:21:02.425Z,-11.49
2023-02-08T03:22:03.077Z,-11.48
2023-02-08T03:23:01.891Z,-11.44
2023-02-08T03:24:01.399Z,-11.39
2023-02-08T03:25:01.958Z,-11.38
2023-02-08T03:26:01.495Z,-11.4
2023-02-08T03:27:01.965Z,-11.44
2023-02-08T03:28:01.551Z,-11.45
2023-02-08T03:29:02.050Z,-11.47
2023-02-08T03:30:01.636Z,-11.48
2023-02-08T03:31:02.259Z,-11.51
2023-02-08T03:32:01.693Z,-11.52
2023-02-08T03:33:02.108Z,-11.55
2023-02-08T03:34:01.662Z,-11.6
2023-02-08T03:35:02.139Z,-11.65
2023-02-08T03:36:03.326Z,-11.68
2023-02-08T03:37:02.141Z,-11.71
2023-02-08T03:38:01.635Z,-11.71
2023-02-08T03:39:02.201Z,-11.7
2023-02-08T03:40:01.738Z,-11.7
2023-02-08T03:41:02.206Z,-11.71
2023-02-08T03:42:01.745Z,-11.71
2023-02-08T03:43:03.891Z,-11.71
2023-02-08T03:44:03.392Z,-11.73
2023-02-08T03:45:02.212Z,-11.75
2023-02-08T03:46:01.790Z,-11.76
2023-02-08T03:47:03.962Z,-11.77
2023-02-08T03:48:01.797Z,-11.78
2023-02-08T03:49:02.275Z,-11.77
2023-02-08T03:50:01.808Z,-11.75
2023-02-08T03:51:02.301Z,-11.74
2023-02-08T03:52:01.803Z,-11.7
2023-02-08T03:53:02.377Z,-11.68
2023-02-08T03:54:01.889Z,-11.67
2023-02-08T03:55:01.404Z,-11.65
2023-02-08T03:56:01.893Z,-11.65
2023-02-08T03:57:03.072Z,-11.68
2023-02-08T03:58:01.968Z,-11.71
2023-02-08T03:59:01.394Z,-11.74
2023-02-08T04:00:04.292Z,-11.77
2023-02-08T04:01:01.495Z,-11.78
2023-02-08T04:02:01.955Z,-11.78
2023-02-08T04:03:01.536Z,-11.81
2023-02-08T04:04:02.034Z,-11.83
2023-02-08T04:05:01.562Z,-11.85
2023-02-08T04:06:02.044Z,-11.86
2023-02-08T04:07:03.254Z,-11.85
2023-02-08T04:08:02.112Z,-11.84
2023-02-08T04:09:01.642Z,-11.84
2023-02-08T04:10:03.828Z,-11.86
2023-02-08T04:11:03.313Z,-11.9
2023-02-08T04:12:02.131Z,-11.9
2023-02-08T04:13:01.658Z,-11.89
2023-02-08T04:14:02.197Z,-11.88
2023-02-08T04:15:01.720Z,-11.88
2023-02-08T04:16:03.903Z,-11.88
2023-02-08T04:17:01.715Z,-11.89
2023-02-08T04:18:03.968Z,-11.89
2023-02-08T04:19:01.711Z,-11.9
2023-02-08T04:20:03.949Z,-11.91
2023-02-08T04:21:01.818Z,-11.92
2023-02-08T04:22:02.303Z,-11.93
2023-02-08T04:23:01.798Z,-11.97
2023-02-08T04:24:02.351Z,-11.99
2023-02-08T04:25:01.884Z,-12.01
2023-02-08T04:26:01.412Z,-12.04
2023-02-08T04:27:02.501Z,-12.01
2023-02-08T04:28:01.434Z,-12
2023-02-08T04:29:01.882Z,-11.98
2023-02-08T04:30:01.410Z,-11.97
2023-02-08T04:31:02.149Z,-11.94
2023-02-08T04:32:01.477Z,-11.93
2023-02-08T04:33:01.962Z,-11.93
2023-02-08T04:34:03.157Z,-11.93
2023-02-08T04:35:01.964Z,-11.93
2023-02-08T04:36:01.543Z,-11.93
2023-02-08T04:37:02.042Z,-11.93
2023-02-08T04:38:02.126Z,-11.98
2023-02-08T04:39:02.031Z,-12.01
2023-02-08T04:40:01.634Z,-11.99
2023-02-08T04:41:02.133Z,-11.96
2023-02-08T04:42:03.243Z,-11.96
2023-02-08T04:43:02.126Z,-11.98
2023-02-08T04:44:01.645Z,-11.98
2023-02-08T04:45:03.803Z,-11.98
2023-02-08T04:46:03.392Z,-11.98
2023-02-08T04:47:03.872Z,-11.98
2023-02-08T04:48:01.716Z,-11.98
2023-02-08T04:49:02.205Z,-12
2023-02-08T04:50:01.707Z,-12.03
2023-02-08T04:51:03.971Z,-12.05
2023-02-08T04:52:01.840Z,-12.07
2023-02-08T04:53:03.961Z,-12.07
2023-02-08T04:54:01.813Z,-12.08
2023-02-08T04:55:02.371Z,-12.08
2023-02-08T04:56:01.809Z,-12.09
2023-02-08T04:57:03.972Z,-12.1
2023-02-08T04:58:01.889Z,-12.11
2023-02-08T04:59:01.404Z,-12.14
2023-02-08T05:00:01.908Z,-12.13
2023-02-08T05:01:01.428Z,-12.1
2023-02-08T05:02:01.885Z,-12.04
2023-02-08T05:03:01.434Z,-11.99
2023-02-08T05:04:03.559Z,-11.95
2023-02-08T05:05:03.195Z,-11.92
2023-02-08T05:06:03.633Z,-11.91
2023-02-08T05:07:03.175Z,-11.95
2023-02-08T05:08:02.001Z,-12
2023-02-08T05:09:01.489Z,-12.06
2023-02-08T05:10:03.740Z,-12.08
2023-02-08T05:11:01.556Z,-12.1
2023-02-08T05:12:02.042Z,-12.1
2023-02-08T05:13:01.585Z,-12.13
2023-02-08T05:14:02.154Z,-12.17
2023-02-08T05:15:01.657Z,-12.19
2023-02-08T05:16:02.886Z,-12.18
2023-02-08T05:17:01.655Z,-12.18
2023-02-08T05:18:02.234Z,-12.19
2023-02-08T05:19:01.724Z,-12.22
2023-02-08T05:20:03.916Z,-12.22
2023-02-08T05:21:01.734Z,-12.23
2023-02-08T05:22:02.321Z,-12.21
2023-02-08T05:23:01.840Z,-12.17
2023-02-08T05:24:02.290Z,-12.15
2023-02-08T05:25:03.506Z,-12.15
2023-02-08T05:26:03.980Z,-12.15
2023-02-08T05:27:03.484Z,-12.2
2023-02-08T05:28:02.368Z,-12.24
2023-02-08T05:29:01.884Z,-12.27
2023-02-08T05:30:01.408Z,-12.3
2023-02-08T05:31:02.049Z,-12.3
2023-02-08T05:32:01.479Z,-12.3
2023-02-08T05:33:02.001Z,-12.33
2023-02-08T05:34:01.412Z,-12.34
2023-02-08T05:35:01.986Z,-12.3
2023-02-08T05:36:03.199Z,-12.28
2023-02-08T05:37:02.051Z,-12.29
2023-02-08T05:38:01.573Z,-12.3
2023-02-08T05:39:02.080Z,-12.33
2023-02-08T05:40:01.563Z,-12.35
2023-02-08T05:41:02.134Z,-12.34
2023-02-08T05:42:01.649Z,-12.34
2023-02-08T05:43:02.142Z,-12.34
2023-02-08T05:44:01.656Z,-12.33
2023-02-08T05:45:02.151Z,-12.34
2023-02-08T05:46:01.661Z,-12.3
2023-02-08T05:47:02.312Z,-12.29
2023-02-08T05:48:01.719Z,-12.29
2023-02-08T05:49:02.215Z,-12.28
2023-02-08T05:50:01.762Z,-12.29
2023-02-08T05:51:02.202Z,-12.29
2023-02-08T05:52:01.722Z,-12.3
2023-02-08T05:53:02.284Z,-12.34
2023-02-08T05:54:01.806Z,-12.37
2023-02-08T05:55:02.902Z,-12.4
2023-02-08T05:56:01.796Z,-12.4
2023-02-08T05:57:02.399Z,-12.4
2023-02-08T05:58:01.887Z,-12.41
2023-02-08T05:59:01.415Z,-12.43
2023-02-08T06:00:01.884Z,-12.47
2023-02-08T06:01:01.400Z,-12.49
2023-02-08T06:02:02.036Z,-12.48
2023-02-08T06:03:01.545Z,-12.45
2023-02-08T06:04:01.999Z,-12.43
2023-02-08T06:05:01.519Z,-12.41
2023-02-08T06:06:02.042Z,-12.39
2023-02-08T06:07:01.565Z,-12.41
2023-02-08T06:08:02.066Z,-12.43
2023-02-08T06:09:01.569Z,-12.45
2023-02-08T06:10:03.799Z,-12.47
2023-02-08T06:11:01.631Z,-12.47
2023-02-08T06:12:02.128Z,-12.45
2023-02-08T06:13:01.671Z,-12.47
2023-02-08T06:14:02.216Z,-12.45
2023-02-08T06:15:01.721Z,-12.43
2023-02-08T06:16:02.295Z,-12.43
2023-02-08T06:17:01.716Z,-12.45
2023-02-08T06:18:03.996Z,-12.47
2023-02-08T06:19:01.717Z,-12.45
2023-02-08T06:20:02.269Z,-12.45
2023-02-08T06:21:01.804Z,-12.45
2023-02-08T06:22:02.266Z,-12.45
2023-02-08T06:23:01.793Z,-12.45
2023-02-08T06:24:02.385Z,-12.48
2023-02-08T06:25:01.910Z,-12.48
2023-02-08T06:26:01.399Z,-12.48
2023-02-08T06:27:01.869Z,-12.48
2023-02-08T06:28:03.171Z,-12.45
2023-02-08T06:29:01.972Z,-12.45
2023-02-08T06:30:01.476Z,-12.44
2023-02-08T06:31:03.624Z,-12.44
2023-02-08T06:32:01.548Z,-12.45
2023-02-08T06:33:04.233Z,-12.47
2023-02-08T06:34:02.025Z,-12.49
2023-02-08T06:35:01.524Z,-12.49
2023-02-08T06:36:02.048Z,-12.49
2023-02-08T06:37:01.550Z,-12.48
2023-02-08T06:38:02.034Z,-12.47
2023-02-08T06:39:01.611Z,-12.44
2023-02-08T06:40:02.172Z,-12.43
2023-02-08T06:41:01.792Z,-12.43
2023-02-08T06:42:03.784Z,-12.43
2023-02-08T06:43:01.776Z,-12.42
2023-02-08T06:44:02.214Z,-12.4
2023-02-08T06:45:01.855Z,-12.38
2023-02-08T06:46:02.243Z,-12.37
2023-02-08T06:47:01.770Z,-12.37
2023-02-08T06:48:02.262Z,-12.36
2023-02-08T06:49:01.864Z,-12.35
2023-02-08T06:50:02.284Z,-12.34
2023-02-08T06:51:01.788Z,-12.35
2023-02-08T06:52:02.346Z,-12.37
2023-02-08T06:53:01.882Z,-12.37
2023-02-08T06:54:01.405Z,-12.36
2023-02-08T06:55:03.563Z,-12.37
2023-02-08T06:56:03.057Z,-12.36
2023-02-08T06:57:03.543Z,-12.35
2023-02-08T06:58:01.388Z,-12.36
2023-02-08T06:59:01.938Z,-12.37
2023-02-08T07:00:01.564Z,-12.35
2023-02-08T07:01:01.969Z,-12.34
2023-02-08T07:02:01.690Z,-12.29
2023-02-08T07:03:02.037Z,-12.3
2023-02-08T07:04:01.561Z,-12.34
2023-02-08T07:05:02.053Z,-12.33
2023-02-08T07:06:05.346Z,-12.29
2023-02-08T07:07:02.112Z,-12.28
2023-02-08T07:08:01.552Z,-12.27
2023-02-08T07:09:02.104Z,-12.27
2023-02-08T07:10:01.673Z,-12.27
2023-02-08T07:11:03.880Z,-12.25
2023-02-08T07:12:01.668Z,-12.26
2023-02-08T07:13:02.194Z,-12.26
2023-02-08T07:14:01.647Z,-12.26
2023-02-08T07:15:02.231Z,-12.25
2023-02-08T07:16:01.714Z,-12.23
2023-02-08T07:17:02.209Z,-12.22
2023-02-08T07:18:01.712Z,-12.2
2023-02-08T07:19:02.278Z,-12.18
2023-02-08T07:20:01.804Z,-12.13
2023-02-08T07:21:02.266Z,-12.09
2023-02-08T07:22:01.818Z,-12.08
2023-02-08T07:23:02.272Z,-12.05
2023-02-08T07:24:03.476Z,-12.05
2023-02-08T07:25:02.352Z,-12.06
2023-02-08T07:26:01.870Z,-12.04
2023-02-08T07:28:03.525Z,-11.98
2023-02-08T07:29:02.359Z,-11.96
2023-02-08T07:30:01.887Z,-11.93
2023-02-08T07:31:01.438Z,-11.9
2023-02-08T07:32:01.941Z,-11.85
2023-02-08T07:33:01.394Z,-11.84
2023-02-08T07:34:01.964Z,-11.84
2023-02-08T07:35:01.475Z,-11.8
2023-02-08T07:36:01.949Z,-11.78
2023-02-08T07:37:01.469Z,-11.78
2023-02-08T07:38:02.039Z,-11.78
2023-02-08T07:39:01.579Z,-11.78
2023-02-08T07:40:02.060Z,-11.77
2023-02-08T07:41:01.556Z,-11.76
2023-02-08T07:42:02.141Z,-11.74
2023-02-08T07:43:03.315Z,-11.73
2023-02-08T07:44:02.139Z,-11.69
2023-02-08T07:45:01.630Z,-11.65
2023-02-08T07:46:02.157Z,-11.6
2023-02-08T07:47:01.654Z,-11.54
2023-02-08T07:48:03.882Z,-11.46
2023-02-08T07:49:03.406Z,-11.37
2023-02-08T07:50:02.276Z,-11.25
2023-02-08T07:51:01.714Z,-11.17
2023-02-08T07:52:02.268Z,-11.1
2023-02-08T07:53:01.798Z,-11.06
2023-02-08T07:54:02.275Z,-11.03
2023-02-08T07:55:03.500Z,-10.96
2023-02-08T07:56:02.348Z,-10.9
2023-02-08T07:57:03.683Z,-10.88
2023-02-08T07:58:02.992Z,-10.88
2023-02-08T07:59:01.881Z,-10.88
2023-02-08T08:00:01.352Z,-10.87
2023-02-08T08:01:15.882Z,-10.86
2023-02-08T08:02:01.399Z,-10.87
2023-02-08T08:03:01.900Z,-10.8
2023-02-08T08:04:01.453Z,-10.7
2023-02-08T08:05:01.966Z,-10.61
2023-02-08T08:06:01.473Z,-10.56
2023-02-08T08:07:01.953Z,-10.56
2023-02-08T08:08:01.493Z,-10.55
2023-02-08T08:09:02.033Z,-10.45
2023-02-08T08:10:01.556Z,-10.38
2023-02-08T08:11:03.789Z,-10.3
2023-02-08T08:12:01.579Z,-10.25
2023-02-08T08:13:03.836Z,-10.26
2023-02-08T08:14:03.238Z,-10.23
2023-02-08T08:15:02.112Z,-10.19
2023-02-08T08:16:01.728Z,-10.12
2023-02-08T08:17:02.152Z,-10.03
2023-02-08T08:18:01.638Z,-9.98
2023-02-08T08:19:02.256Z,-9.96
2023-02-08T08:20:01.724Z,-9.93
2023-02-08T08:21:02.200Z,-9.91
2023-02-08T08:22:01.739Z,-9.91
2023-02-08T08:23:02.290Z,-9.88
2023-02-08T08:24:01.796Z,-9.84
2023-02-08T08:25:02.301Z,-9.77
2023-02-08T08:26:01.841Z,-9.74
2023-02-08T08:27:04.801Z,-9.72
2023-02-08T08:28:01.797Z,-9.66
2023-02-08T08:29:02.433Z,-9.61
2023-02-08T08:30:02.456Z,-9.54
2023-02-08T08:32:01.799Z,-9.31
2023-02-08T08:34:03.577Z,-9.1
2023-02-08T08:36:03.513Z,-8.89
2023-02-08T08:37:02.412Z,-8.84
2023-02-08T08:38:01.883Z,-8.75
2023-02-08T08:39:01.398Z,-8.69
2023-02-08T08:40:03.551Z,-8.6
2023-02-08T08:41:01.393Z,-8.53
2023-02-08T08:42:01.982Z,-8.48
2023-02-08T08:43:01.484Z,-8.41
2023-02-08T08:44:03.635Z,-8.34
2023-02-08T08:45:01.485Z,-8.27
2023-02-08T08:46:02.120Z,-8.21
2023-02-08T08:47:03.181Z,-8.14
2023-02-08T08:48:02.060Z,-8.06
2023-02-08T08:49:01.580Z,-7.98
2023-02-08T08:50:02.129Z,-7.92
2023-02-08T08:51:03.232Z,-7.86
2023-02-08T08:52:02.122Z,-7.82
2023-02-08T08:53:01.656Z,-7.75
2023-02-08T08:54:03.797Z,-7.68
2023-02-08T08:55:03.309Z,-7.63
2023-02-08T08:56:02.209Z,-7.55
2023-02-08T08:57:01.736Z,-7.52
2023-02-08T08:58:03.901Z,-7.51
2023-02-08T08:59:03.387Z,-7.42
2023-02-08T09:00:02.284Z,-7.36
2023-02-08T09:01:01.812Z,-7.31
2023-02-08T09:02:02.321Z,-7.26
2023-02-08T09:03:01.828Z,-7.22
2023-02-08T09:04:02.353Z,-7.21
2023-02-08T09:05:01.825Z,-7.18
2023-02-08T09:06:04.028Z,-7.15
2023-02-08T09:07:01.876Z,-7.1
2023-02-08T09:08:01.400Z,-7.07
2023-02-08T09:09:02.559Z,-7.05
2023-02-08T09:10:01.415Z,-7.02
2023-02-08T09:11:01.958Z,-7
2023-02-08T09:12:01.406Z,-6.96
2023-02-08T09:13:02.005Z,-6.91
2023-02-08T09:14:03.954Z,-6.89
2023-02-08T09:15:01.973Z,-6.85
2023-02-08T09:16:01.543Z,-6.81
2023-02-08T09:17:01.963Z,-6.79
2023-02-08T09:18:01.503Z,-6.77
2023-02-08T09:19:02.037Z,-6.75
2023-02-08T09:20:02.855Z,-6.73
2023-02-08T09:21:03.700Z,-6.7
2023-02-08T09:22:01.544Z,-6.68
2023-02-08T09:23:02.108Z,-6.66
2023-02-08T09:24:01.664Z,-6.66
2023-02-08T09:25:03.840Z,-6.66
2023-02-08T09:26:01.632Z,-6.64
2023-02-08T09:27:02.112Z,-6.62
2023-02-08T09:28:01.653Z,-6.59
2023-02-08T09:29:02.188Z,-6.51
2023-02-08T09:30:01.702Z,-6.47
2023-02-08T09:31:02.282Z,-6.47
2023-02-08T09:32:01.750Z,-6.46
2023-02-08T09:33:02.266Z,-6.44
2023-02-08T09:34:03.488Z,-6.37
2023-02-08T09:35:02.281Z,-6.33
2023-02-08T09:36:03.484Z,-6.27
2023-02-08T09:37:02.355Z,-6.2
2023-02-08T09:38:03.466Z,-6.15
2023-02-08T09:40:01.817Z,-6.05
2023-02-08T09:41:02.359Z,-6.01
2023-02-08T09:42:01.897Z,-5.99
2023-02-08T09:43:01.401Z,-5.94
2023-02-08T09:44:01.873Z,-5.9
2023-02-08T09:45:01.402Z,-5.86
2023-02-08T09:46:01.966Z,-5.83
2023-02-08T09:47:01.529Z,-5.79
2023-02-08T09:48:01.963Z,-5.75
2023-02-08T09:49:03.158Z,-5.71
2023-02-08T09:50:02.045Z,-5.68
2023-02-08T09:51:03.233Z,-5.64
2023-02-08T09:52:02.080Z,-5.61
2023-02-08T09:53:01.569Z,-5.57
2023-02-08T09:54:02.125Z,-5.54
2023-02-08T09:55:01.700Z,-5.52
2023-02-08T09:56:02.228Z,-5.48
2023-02-08T09:57:01.649Z,-5.45
2023-02-08T09:58:02.227Z,-5.43
2023-02-08T09:59:01.730Z,-5.4
2023-02-08T10:00:02.232Z,-5.33
2023-02-08T10:01:02.732Z,-5.29
2023-02-08T10:02:02.290Z,-5.25
2023-02-08T10:03:01.853Z,-5.2
2023-02-08T10:04:02.291Z,-5.17
2023-02-08T10:05:03.504Z,-5.13
2023-02-08T10:06:02.382Z,-5.1
2023-02-08T10:07:01.905Z,-5.05
2023-02-08T10:08:01.405Z,-5.01
2023-02-08T10:09:01.898Z,-4.97
2023-02-08T10:10:01.401Z,-4.91
2023-02-08T10:11:01.994Z,-4.87
2023-02-08T10:12:01.529Z,-4.83
2023-02-08T10:13:01.957Z,-4.78
2023-02-08T10:14:01.482Z,-4.73
2023-02-08T10:15:01.963Z,-4.7
2023-02-08T10:16:01.528Z,-4.69
2023-02-08T10:17:02.070Z,-4.64
2023-02-08T10:18:01.633Z,-4.61
2023-02-08T10:19:02.037Z,-4.6
2023-02-08T10:20:01.557Z,-4.61
2023-02-08T10:21:02.122Z,-4.6
2023-02-08T10:22:01.656Z,-4.58
2023-02-08T10:23:02.117Z,-4.53
2023-02-08T10:24:03.310Z,-4.5
2023-02-08T10:25:02.207Z,-4.45
2023-02-08T10:26:01.758Z,-4.44
2023-02-08T10:27:02.852Z,-4.42
2023-02-08T10:28:01.817Z,-4.39
2023-02-08T10:29:03.952Z,-4.32
2023-02-08T10:30:01.758Z,-4.28
2023-02-08T10:31:02.375Z,-4.26
2023-02-08T10:32:01.863Z,-4.24
2023-02-08T10:33:03.957Z,-4.22
2023-02-08T10:34:01.804Z,-4.21
2023-02-08T10:35:04.047Z,-4.17
2023-02-08T10:36:01.794Z,-4.16
2023-02-08T10:37:02.994Z,-4.13
2023-02-08T10:38:01.894Z,-4.14
2023-02-08T10:39:01.390Z,-4.15
2023-02-08T10:40:01.966Z,-4.13
2023-02-08T10:41:03.106Z,-4.12
2023-02-08T10:42:01.973Z,-4.08
2023-02-08T10:43:01.499Z,-4.02
2023-02-08T10:44:02.041Z,-3.91
2023-02-08T10:45:01.576Z,-3.82
2023-02-08T10:46:02.068Z,-3.74
2023-02-08T10:47:01.560Z,-3.68
2023-02-08T10:48:02.067Z,-3.63
2023-02-08T10:49:01.566Z,-3.6
2023-02-08T10:50:02.136Z,-3.57
2023-02-08T10:51:01.646Z,-3.53
2023-02-08T10:52:03.903Z,-3.47
2023-02-08T10:53:01.643Z,-3.4
2023-02-08T10:54:02.240Z,-3.38
2023-02-08T10:55:01.668Z,-3.36
2023-02-08T10:56:03.894Z,-3.33
2023-02-08T10:57:03.418Z,-3.27
2023-02-08T10:58:02.202Z,-3.23
2023-02-08T10:59:01.751Z,-3.18
2023-02-08T11:00:02.302Z,-3.11
2023-02-08T11:01:01.817Z,-3.09
2023-02-08T11:02:02.284Z,-3.07
2023-02-08T11:03:01.818Z,-3.05
2023-02-08T11:04:04.165Z,-3
2023-02-08T11:05:01.887Z,-2.98
2023-02-08T11:07:01.894Z,-2.89
2023-02-08T11:09:01.881Z,-2.9
2023-02-08T11:10:02.384Z,-2.87
2023-02-08T11:11:01.897Z,-2.82
2023-02-08T11:12:01.413Z,-2.75
2023-02-08T11:13:01.878Z,-2.72
2023-02-08T11:14:01.408Z,-2.71
2023-02-08T11:15:01.880Z,-2.69
2023-02-08T11:16:01.401Z,-2.67
2023-02-08T11:17:01.953Z,-2.63
2023-02-08T11:18:01.501Z,-2.63
2023-02-08T11:19:02.050Z,-2.6
2023-02-08T11:20:01.584Z,-2.53
2023-02-08T11:21:02.058Z,-2.48
2023-02-08T11:22:03.243Z,-2.44
2023-02-08T11:23:02.123Z,-2.39
2023-02-08T11:24:03.374Z,-2.37
2023-02-08T11:25:02.163Z,-2.31
2023-02-08T11:26:01.664Z,-2.27
2023-02-08T11:27:02.123Z,-2.24
2023-02-08T11:28:01.727Z,-2.2
2023-02-08T11:29:02.196Z,-2.15
2023-02-08T11:30:03.342Z,-2.03
2023-02-08T11:31:02.300Z,-2.02
2023-02-08T11:32:03.538Z,-2.02
2023-02-08T11:33:02.218Z,-1.99
2023-02-08T11:34:01.725Z,-1.92
2023-02-08T11:35:02.316Z,-1.87
2023-02-08T11:36:01.835Z,-1.79
2023-02-08T11:37:02.274Z,-1.74
2023-02-08T11:38:01.816Z,-1.71
2023-02-08T11:39:02.297Z,-1.7
2023-02-08T11:40:01.805Z,-1.67
2023-02-08T11:41:02.389Z,-1.64
2023-02-08T11:42:01.908Z,-1.61
2023-02-08T11:43:01.443Z,-1.59
2023-02-08T11:44:02.021Z,-1.52
2023-02-08T11:45:03.217Z,-1.43
2023-02-08T11:46:02.068Z,-1.4
2023-02-08T11:47:01.492Z,-1.32
2023-02-08T11:48:02.052Z,-1.28
2023-02-08T11:49:01.576Z,-1.21
2023-02-08T11:50:03.720Z,-1.12
2023-02-08T11:51:01.579Z,-1.04
2023-02-08T11:52:03.727Z,-1
2023-02-08T11:53:03.265Z,-0.98
2023-02-08T11:54:03.811Z,-0.96
2023-02-08T11:55:01.658Z,-0.96
2023-02-08T11:56:02.239Z,-0.93
2023-02-08T11:57:03.413Z,-0.93
2023-02-08T11:58:02.206Z,-0.94
2023-02-08T11:59:01.730Z,-0.89
2023-02-08T12:00:02.284Z,-0.83
2023-02-08T12:01:01.832Z,-0.8
2023-02-08T12:02:02.301Z,-0.74
2023-02-08T12:03:01.798Z,-0.67
2023-02-08T12:04:01.399Z,-0.64
2023-02-08T12:05:01.882Z,-0.58
2023-02-08T12:06:01.452Z,-0.51
2023-02-08T12:07:01.877Z,-0.52
2023-02-08T12:08:01.430Z,-0.54
2023-02-08T12:09:02.011Z,-0.55
2023-02-08T12:10:01.489Z,-0.49
2023-02-08T12:11:01.958Z,-0.46
2023-02-08T12:12:01.491Z,-0.46
2023-02-08T12:13:02.037Z,-0.42
2023-02-08T12:14:01.722Z,-0.35
2023-02-08T12:15:02.182Z,-0.28
2023-02-08T12:16:01.824Z,-0.25
2023-02-08T12:17:02.140Z,-0.24
2023-02-08T12:18:01.644Z,-0.15
2023-02-08T12:19:03.825Z,-0.05
2023-02-08T12:20:01.647Z,0.03
2023-02-08T12:21:02.202Z,0.06
2023-02-08T12:22:01.758Z,0.08
2023-02-08T12:23:03.880Z,0.12
2023-02-08T12:24:03.477Z,0.13
2023-02-08T12:25:02.283Z,0.12
2023-02-08T12:26:01.801Z,0.14
2023-02-08T12:27:02.274Z,0.15
2023-02-08T12:28:01.865Z,0.17
2023-02-08T12:29:02.362Z,0.18
2023-02-08T12:30:01.856Z,0.18
2023-02-08T12:32:01.788Z,0.27
2023-02-08T12:33:02.347Z,0.29
2023-02-08T12:34:01.997Z,0.28
2023-02-08T12:35:01.439Z,0.32
2023-02-08T12:36:04.948Z,0.38
2023-02-08T12:37:01.390Z,0.43
2023-02-08T12:38:01.967Z,0.47
2023-02-08T12:39:10.389Z,0.5
2023-02-08T12:40:03.652Z,0.5
2023-02-08T12:41:01.468Z,0.51
2023-02-08T12:42:02.067Z,0.57
2023-02-08T12:43:01.543Z,0.6
2023-02-08T12:44:02.031Z,0.6
2023-02-08T12:45:01.567Z,0.62
2023-02-08T12:46:02.216Z,0.63
2023-02-08T12:47:01.626Z,0.65
2023-02-08T12:48:04.722Z,0.69
2023-02-08T12:49:01.630Z,0.72
2023-02-08T12:50:02.114Z,0.75